Etusivu
METAR-TAF:

METAR-TAF

Lentoasemat :

Bou Saada, Algeria

Leveyspiiri: 35-20N, Pituuspiiri: 004-12E, korkeus merenpinnasta: 461 m

Tämänhetkinen sää

Tämä raportti tehtiin 1 tunti ja 4 minuuttia sitten, kello 14.00 UTC
Tuuli 8 kn luoteesta
Lämpötila 41°C
Kosteus 11%
Ilmanpaine 1015 hPa
Näkyvyys 10 km tai enemmän
Muutamia pilviä 2600 ft:n korkeudessa, Kasvava cumulus-pilvi.
Hajanaisia pilviä 3300 ft:n korkeudessa

METAR: DAAD 121400Z 31008KT 9999 FEW026TCU SCT033 41/05 Q1015

Aika: 16:04 (15:04 UTC)

Sääennuste

Tämä raportti tehtiin 1 tunti ja 4 minuuttia sitten, kello 14.00 UTC
Ennuste voimassa 12. päivästä klo 15 UTC - 12. päivään klo 24 UTC
Tuuli 10 kn lännestä/luoteesta
Näkyvyys 10 km tai enemmän
Hajanaisia pilviä 3300 ft:n korkeudessa
Ajoittain
12. päivästä klo 15 UTC - 12. päivään klo 20 UTC
Muutamia pilviä 2600 ft:n korkeudessa, Cumulonimbus.

TAF: DAAD 121400Z 1215/1224 30010KT 9999 SCT033 TEMPO 1215/1220 FEW026CB

Säähavainnot ja -ennusteet yli 4000 lentoasemalta (METAR- ja TAF-raportit).

Käytössä olevat sääasemat on merkitty karttaan keltaisilla ja punaisilla pisteillä.

Aseta hiiri pisteen päälle nähdäksesi sääaseman nimen.

Klikkaa sitten nähdäksesi säähavainnot ja -ennusteet.

Kartan vaihtaminen: klikkaa mustalla rastilla varustettuja vihreitä pisteitä, niin voit zoomata sisään; viivalla varustettua vihreää pistettä, niin voit zoomata ulos tai vihreitä nuolia, niin pääset viereisille kartoille.


METAR-TAF: